createdAt,value
2023-05-19T00:01:03.181Z,100088.41
2023-05-19T00:03:30.551Z,100088.13
2023-05-19T00:05:58.781Z,100086.06
2023-05-19T00:08:26.653Z,100084.47
2023-05-19T00:10:53.831Z,100081.09
2023-05-19T00:13:21.918Z,100081.16
2023-05-19T00:15:50.242Z,100079.31
2023-05-19T00:18:17.388Z,100084.56
2023-05-19T00:20:44.343Z,100084.84
2023-05-19T00:23:11.663Z,100083.25
2023-05-19T00:25:38.598Z,100078.53
2023-05-19T00:28:05.490Z,100075.06
2023-05-19T00:30:32.846Z,100080.06
2023-05-19T00:33:00.408Z,100077.69
2023-05-19T00:35:27.472Z,100085.03
2023-05-19T00:37:59.114Z,100081.56
2023-05-19T00:40:28.214Z,100077.16
2023-05-19T00:42:57.194Z,100070.09
2023-05-19T00:45:25.396Z,100075.59
2023-05-19T00:47:53.198Z,100069.75
2023-05-19T00:50:20.117Z,100073.53
2023-05-19T00:52:51.309Z,100071.47
2023-05-19T00:55:43.369Z,100068.34
2023-05-19T00:58:14.143Z,100067.28
2023-05-19T01:00:41.218Z,100066.22
2023-05-19T01:03:09.162Z,100069.03
2023-05-19T01:05:37.235Z,100065.16
2023-05-19T01:08:05.826Z,100070.94
2023-05-19T01:10:33.162Z,100065.16
2023-05-19T01:13:02.188Z,100065.16
2023-05-19T01:15:29.564Z,100061.22
2023-05-19T01:18:12.335Z,100054.16
2023-05-19T01:20:40.477Z,100056.19
2023-05-19T01:23:46.088Z,100063.88
2023-05-19T01:26:48.007Z,100059.66
2023-05-19T01:29:26.203Z,100054.72
2023-05-19T01:31:55.637Z,100050.22
2023-05-19T01:34:25.540Z,100050.25
2023-05-19T01:36:56.043Z,100056.06
2023-05-19T01:39:25.225Z,100046.84
2023-05-19T01:41:54.242Z,100048.22
2023-05-19T01:44:23.173Z,100049.03
2023-05-19T01:46:51.013Z,100057.53
2023-05-19T01:49:17.913Z,100051.53
2023-05-19T01:51:45.956Z,100052.03
2023-05-19T01:54:12.741Z,100054.66
2023-05-19T01:56:53.244Z,100052.75
2023-05-19T02:00:09.329Z,100054.91
2023-05-19T02:03:08.317Z,100052.56
2023-05-19T02:05:44.995Z,100052.88
2023-05-19T02:08:21.230Z,100052.88
2023-05-19T02:11:00.815Z,100049.78
2023-05-19T02:13:34.226Z,100051.84
2023-05-19T02:16:05.386Z,100053.94
2023-05-19T02:18:35.358Z,100046.84
2023-05-19T02:21:02.894Z,100047.63
2023-05-19T02:23:30.979Z,100047.41
2023-05-19T02:26:01.274Z,100041.63
2023-05-19T02:28:28.247Z,100044.25
2023-05-19T02:30:55.670Z,100047.94
2023-05-19T02:33:22.667Z,100042.69
2023-05-19T02:35:49.657Z,100041.09
2023-05-19T02:38:16.471Z,100043.47
2023-05-19T02:40:44.294Z,100037.97
2023-05-19T02:43:11.314Z,100031.13
2023-05-19T02:45:38.221Z,100035.63
2023-05-19T02:48:06.309Z,100027.47
2023-05-19T02:50:33.439Z,100034.31
2023-05-19T02:53:00.454Z,100037.19
2023-05-19T02:55:27.536Z,100028.28
2023-05-19T02:57:54.530Z,100030.63
2023-05-19T03:03:39.370Z,100040.03
2023-05-19T03:06:06.890Z,100039.25
2023-05-19T03:08:33.683Z,100042.16
2023-05-19T03:11:01.307Z,100040.56
2023-05-19T03:13:31.961Z,100046.63
2023-05-19T03:16:00.799Z,100046.59
2023-05-19T03:18:27.824Z,100054.72
2023-05-19T03:20:54.888Z,100054.47
2023-05-19T03:23:22.895Z,100043.19
2023-05-19T03:25:50.209Z,100046.88
2023-05-19T03:28:17.166Z,100047.91
2023-05-19T03:30:46.356Z,100045.56
2023-05-19T03:33:18.961Z,100051.06
2023-05-19T03:35:47.304Z,100056.28
2023-05-19T03:38:15.366Z,100051.28
2023-05-19T03:40:51.229Z,100059.97
2023-05-19T03:43:18.122Z,100058.13
2023-05-19T03:45:52.372Z,100056.31
2023-05-19T03:48:48.476Z,100051.34
2023-05-19T03:51:33.993Z,100053.91
2023-05-19T03:54:11.554Z,100047.59
2023-05-19T03:56:44.240Z,100048.94
2023-05-19T03:59:11.102Z,100052.13
2023-05-19T04:01:41.333Z,100056.31
2023-05-19T04:04:33.226Z,100058.16
2023-05-19T04:07:00.815Z,100065.22
2023-05-19T04:09:27.626Z,100064.19
2023-05-19T04:11:56.287Z,100065.50
2023-05-19T04:14:24.373Z,100069.19
2023-05-19T04:16:51.211Z,100074.16
2023-05-19T04:19:19.071Z,100077.31
2023-05-19T04:21:46.242Z,100065.22
2023-05-19T04:24:13.108Z,100074.16
2023-05-19T04:26:40.878Z,100072.84
2023-05-19T04:29:07.821Z,100071.25
2023-05-19T04:31:35.408Z,100063.16
2023-05-19T04:34:04.622Z,100066.53
2023-05-19T04:36:35.334Z,100067.06
2023-05-19T04:39:04.456Z,100064.44
2023-05-19T04:41:31.371Z,100073.31
2023-05-19T04:43:59.921Z,100068.84
2023-05-19T04:46:27.362Z,100067.53
2023-05-19T04:48:55.519Z,100066.25
2023-05-19T04:51:25.216Z,100065.94
2023-05-19T04:53:52.051Z,100059.88
2023-05-19T04:56:45.308Z,100064.59
2023-05-19T04:59:12.916Z,100063.75
2023-05-19T05:01:43.440Z,100066.34
2023-05-19T05:04:13.405Z,100062.41
2023-05-19T05:06:41.194Z,100070.53
2023-05-19T05:09:09.304Z,100073.16
2023-05-19T05:11:37.014Z,100066.75
2023-05-19T05:14:04.545Z,100073.84
2023-05-19T05:16:37.391Z,100069.66
2023-05-19T05:19:05.848Z,100072.78
2023-05-19T05:21:33.847Z,100073.84
2023-05-19T05:24:02.355Z,100072.00
2023-05-19T05:26:34.187Z,100070.41
2023-05-19T05:29:02.728Z,100074.88
2023-05-19T05:31:30.150Z,100073.03
2023-05-19T05:33:58.011Z,100076.09
2023-05-19T05:36:28.544Z,100075.53
2023-05-19T05:41:47.373Z,100072.59
2023-05-19T05:44:14.393Z,100080.16
2023-05-19T05:46:44.230Z,100072.25
2023-05-19T05:49:13.361Z,100079.06
2023-05-19T05:51:54.290Z,100071.72
2023-05-19T05:54:38.451Z,100074.03
2023-05-19T05:57:10.264Z,100074.06
2023-05-19T05:59:38.447Z,100075.59
2023-05-19T06:02:05.628Z,100077.91
2023-05-19T06:04:33.485Z,100069.66
2023-05-19T06:07:01.319Z,100069.09
2023-05-19T06:09:32.094Z,100072.38
2023-05-19T06:12:25.295Z,100071.47
2023-05-19T06:14:54.437Z,100075.59
2023-05-19T06:17:40.260Z,100077.69
2023-05-19T06:20:08.071Z,100081.03
2023-05-19T06:22:35.529Z,100078.91
2023-05-19T06:25:03.326Z,100081.25
2023-05-19T06:27:31.185Z,100072.88
2023-05-19T06:29:59.531Z,100077.50
2023-05-19T06:32:28.263Z,100079.41
2023-05-19T06:34:58.058Z,100070.38
2023-05-19T06:37:25.787Z,100068.19
2023-05-19T06:39:55.120Z,100072.84
2023-05-19T06:42:22.800Z,100072.78
2023-05-19T06:45:08.158Z,100080.06
2023-05-19T06:47:36.294Z,100082.28
2023-05-19T06:50:03.694Z,100086.44
2023-05-19T06:52:34.271Z,100079.59
2023-05-19T06:55:02.751Z,100080.91
2023-05-19T06:57:32.311Z,100087.25
2023-05-19T07:00:01.604Z,100087.09
2023-05-19T07:02:28.734Z,100083.41
2023-05-19T07:04:55.850Z,100097.00
2023-05-19T07:07:25.212Z,100100.69
2023-05-19T07:09:53.120Z,100102.34
2023-05-19T07:12:23.249Z,100107.75
2023-05-19T07:14:53.113Z,100107.03
2023-05-19T07:17:20.985Z,100106.88
2023-05-19T07:19:48.907Z,100100.78
2023-05-19T07:22:16.245Z,100101.47
2023-05-19T07:24:44.412Z,100098.06
2023-05-19T07:27:13.225Z,100090.00
2023-05-19T07:29:43.728Z,100091.38
2023-05-19T07:32:11.365Z,100082.66
2023-05-19T07:34:40.616Z,100084.06
2023-05-19T07:37:07.707Z,100080.75
2023-05-19T07:39:36.089Z,100086.34
2023-05-19T07:42:03.911Z,100089.88
2023-05-19T07:44:32.268Z,100088.31
2023-05-19T07:46:59.056Z,100088.13
2023-05-19T07:49:55.436Z,100087.19
2023-05-19T07:52:25.756Z,100079.91
2023-05-19T07:54:52.526Z,100081.41
2023-05-19T07:57:19.528Z,100093.31
2023-05-19T07:59:46.293Z,100082.34
2023-05-19T08:02:14.493Z,100081.06
2023-05-19T08:05:10.317Z,100085.19
2023-05-19T08:07:37.474Z,100090.72
2023-05-19T08:10:04.635Z,100088.25
2023-05-19T08:12:31.817Z,100093.47
2023-05-19T08:15:01.009Z,100097.88
2023-05-19T08:17:28.410Z,100083.38
2023-05-19T08:20:20.374Z,100085.97
2023-05-19T08:22:49.384Z,100092.03
2023-05-19T08:25:16.257Z,100082.09
2023-05-19T08:27:43.181Z,100076.69
2023-05-19T08:30:11.370Z,100082.09
2023-05-19T08:32:38.733Z,100078.75
2023-05-19T08:35:05.860Z,100074.56
2023-05-19T08:37:36.050Z,100076.50
2023-05-19T08:40:03.114Z,100072.69
2023-05-19T08:42:30.020Z,100073.56
2023-05-19T08:44:56.845Z,100075.16
2023-05-19T08:47:23.773Z,100072.59
2023-05-19T08:49:54.346Z,100072.97
2023-05-19T08:52:39.648Z,100066.06
2023-05-19T08:58:11.845Z,100059.75
2023-05-19T09:00:39.073Z,100061.75
2023-05-19T09:03:18.170Z,100060.34
2023-05-19T09:05:52.278Z,100052.16
2023-05-19T09:08:19.250Z,100056.94
2023-05-19T09:10:46.717Z,100052.41
2023-05-19T09:13:15.257Z,100060.91
2023-05-19T09:15:42.513Z,100064.25
2023-05-19T09:18:13.319Z,100060.31
2023-05-19T09:20:42.099Z,100061.88
2023-05-19T09:23:17.741Z,100056.06
2023-05-19T09:25:52.239Z,100055.47
2023-05-19T09:28:29.269Z,100054.09
2023-05-19T09:31:08.683Z,100050.16
2023-05-19T09:33:37.200Z,100052.34
2023-05-19T09:36:04.827Z,100043.72
2023-05-19T09:38:33.300Z,100045.16
2023-05-19T09:41:01.120Z,100045.31
2023-05-19T09:43:34.322Z,100047.66
2023-05-19T09:46:07.540Z,100036.50
2023-05-19T09:48:35.722Z,100040.84
2023-05-19T09:51:04.020Z,100037.75
2023-05-19T09:53:31.951Z,100036.00
2023-05-19T09:55:58.990Z,100029.59
2023-05-19T09:58:26.682Z,100027.81
2023-05-19T10:00:54.077Z,100021.91
2023-05-19T10:03:25.715Z,100023.47
2023-05-19T10:05:53.643Z,100023.53
2023-05-19T10:08:20.776Z,100026.97
2023-05-19T10:10:48.509Z,100027.06
2023-05-19T10:13:16.352Z,100027.22
2023-05-19T10:15:57.288Z,100018.94
2023-05-19T10:18:27.333Z,100024.06
2023-05-19T10:20:54.533Z,100021.44
2023-05-19T10:23:21.395Z,100021.91
2023-05-19T10:25:49.711Z,100008.03
2023-05-19T10:28:18.560Z,100017.41
2023-05-19T10:30:53.211Z,100007.09
2023-05-19T10:33:23.865Z,100011.94
2023-05-19T10:36:06.040Z,100004.41
2023-05-19T10:38:42.192Z,100002.72
2023-05-19T10:41:31.777Z,99998.97
2023-05-19T10:44:33.652Z,99997.72
2023-05-19T10:47:06.984Z,99997.41
2023-05-19T10:49:36.873Z,99998.38
2023-05-19T10:52:22.371Z,100004.75
2023-05-19T10:54:49.697Z,100000.69
2023-05-19T10:57:20.833Z,100008.66
2023-05-19T10:59:51.352Z,100007.53
2023-05-19T11:02:43.828Z,100006.47
2023-05-19T11:05:16.401Z,100009.88
2023-05-19T11:07:56.442Z,99995.81
2023-05-19T11:10:25.041Z,99994.59
2023-05-19T11:12:52.421Z,100000.06
2023-05-19T11:15:26.489Z,99990.88
2023-05-19T11:17:54.634Z,99991.34
2023-05-19T11:20:25.948Z,99997.13
2023-05-19T11:23:05.616Z,99989.47
2023-05-19T11:25:49.946Z,99984.47
2023-05-19T11:28:42.973Z,99984.16
2023-05-19T11:31:11.434Z,99982.91
2023-05-19T11:33:41.303Z,99983.19
2023-05-19T11:36:08.649Z,99977.44
2023-05-19T11:39:02.358Z,99968.25
2023-05-19T11:41:29.187Z,99977.91
2023-05-19T11:43:55.968Z,99965.75
2023-05-19T11:46:48.559Z,99976.22
2023-05-19T11:49:15.838Z,99965.75
2023-05-19T11:51:46.300Z,99963.41
2023-05-19T11:54:38.311Z,99966.00
2023-05-19T11:57:08.789Z,99963.13
2023-05-19T12:02:29.370Z,99965.16
2023-05-19T12:04:56.200Z,99964.09
2023-05-19T12:07:24.459Z,99962.38
2023-05-19T12:09:53.414Z,99966.28
2023-05-19T12:12:22.617Z,99961.66
2023-05-19T12:14:51.483Z,99967.88
2023-05-19T12:17:20.295Z,99955.94
2023-05-19T12:19:49.437Z,99956.56
2023-05-19T12:22:21.428Z,99959.75
2023-05-19T12:24:49.399Z,99956.19
2023-05-19T12:27:21.486Z,99960.44
2023-05-19T12:29:51.727Z,99958.38
2023-05-19T12:32:19.163Z,99954.03
2023-05-19T12:34:46.571Z,99960.13
2023-05-19T12:37:13.910Z,99945.78
2023-05-19T12:39:42.666Z,99951.09
2023-05-19T12:42:11.287Z,99952.84
2023-05-19T12:44:38.960Z,99954.94
2023-05-19T12:47:06.803Z,99957.84
2023-05-19T12:49:34.242Z,99950.25
2023-05-19T12:52:05.187Z,99950.53
2023-05-19T12:54:34.150Z,99945.22
2023-05-19T12:57:01.752Z,99944.03
2023-05-19T12:59:38.417Z,99941.66
2023-05-19T13:02:06.608Z,99934.28
2023-05-19T13:04:33.526Z,99930.53
2023-05-19T13:07:00.376Z,99930.63
2023-05-19T13:09:27.114Z,99925.44
2023-05-19T13:11:54.205Z,99929.97
2023-05-19T13:14:21.038Z,99924.00
2023-05-19T13:16:47.956Z,99922.22
2023-05-19T13:19:25.055Z,99918.06
2023-05-19T13:21:52.762Z,99917.00
2023-05-19T13:24:19.580Z,99922.25
2023-05-19T13:26:46.399Z,99918.94
2023-05-19T13:29:13.232Z,99910.41
2023-05-19T13:31:40.670Z,99915.91
2023-05-19T13:34:07.689Z,99905.78
2023-05-19T13:36:34.448Z,99906.47
2023-05-19T13:39:01.757Z,99907.03
2023-05-19T13:41:28.520Z,99893.41
2023-05-19T13:43:59.296Z,99896.25
2023-05-19T13:46:33.114Z,99896.50
2023-05-19T13:49:10.710Z,99892.97
2023-05-19T13:51:37.526Z,99889.84
2023-05-19T13:54:05.297Z,99895.72
2023-05-19T13:56:32.202Z,99879.38
2023-05-19T13:58:59.407Z,99878.63
2023-05-19T14:01:26.212Z,99875.28
2023-05-19T14:03:53.332Z,99879.50
2023-05-19T14:06:20.302Z,99872.88
2023-05-19T14:08:47.197Z,99867.22
2023-05-19T14:11:20.669Z,99874.00
2023-05-19T14:13:52.554Z,99871.75
2023-05-19T14:16:19.957Z,99863.31
2023-05-19T14:18:47.270Z,99867.31
2023-05-19T14:21:14.315Z,99867.06
2023-05-19T14:23:41.343Z,99863.53
2023-05-19T14:26:09.338Z,99867.31
2023-05-19T14:28:36.720Z,99858.97
2023-05-19T14:31:04.348Z,99860.81
2023-05-19T14:33:38.115Z,99863.59
2023-05-19T14:36:07.958Z,99868.84
2023-05-19T14:38:35.221Z,99869.75
2023-05-19T14:41:02.329Z,99867.50
2023-05-19T14:43:29.226Z,99870.41
2023-05-19T14:45:57.149Z,99873.41
2023-05-19T14:48:24.126Z,99865.94
2023-05-19T14:50:52.820Z,99874.25
2023-05-19T14:53:19.624Z,99875.34
2023-05-19T14:55:49.793Z,99866.13
2023-05-19T14:58:27.434Z,99871.03
2023-05-19T15:00:58.103Z,99869.47
2023-05-19T15:03:25.122Z,99870.25
2023-05-19T15:05:52.115Z,99869.78
2023-05-19T15:08:19.073Z,99867.13
2023-05-19T15:10:49.026Z,99872.56
2023-05-19T15:13:16.783Z,99860.16
2023-05-19T15:15:43.653Z,99858.38
2023-05-19T15:18:10.446Z,99865.59
2023-05-19T15:20:38.316Z,99869.66
2023-05-19T15:23:05.133Z,99870.53
2023-05-19T15:25:31.999Z,99870.53
2023-05-19T15:27:58.837Z,99878.28
2023-05-19T15:30:25.653Z,99882.84
2023-05-19T15:32:52.423Z,99878.19
2023-05-19T15:35:20.258Z,99891.16
2023-05-19T15:37:47.018Z,99884.59
2023-05-19T15:40:14.091Z,99882.53
2023-05-19T15:42:40.931Z,99879.31
2023-05-19T15:45:10.095Z,99876.22
2023-05-19T15:47:37.017Z,99872.78
2023-05-19T15:50:03.994Z,99867.78
2023-05-19T15:52:30.979Z,99866.38
2023-05-19T15:54:59.715Z,99866.69
2023-05-19T15:57:26.587Z,99866.25
2023-05-19T15:59:53.512Z,99861.69
2023-05-19T16:02:21.815Z,99867.72
2023-05-19T16:05:15.788Z,99863.25
2023-05-19T16:07:43.769Z,99867.34
2023-05-19T16:10:10.722Z,99867.88
2023-05-19T16:12:37.629Z,99867.41
2023-05-19T16:15:05.123Z,99860.53
2023-05-19T16:17:31.957Z,99869.09
2023-05-19T16:19:59.395Z,99865.22
2023-05-19T16:22:26.784Z,99865.53
2023-05-19T16:24:53.518Z,99868.06
2023-05-19T16:27:20.964Z,99872.28
2023-05-19T16:29:48.764Z,99869.16
2023-05-19T16:32:15.764Z,99873.13
2023-05-19T16:34:43.720Z,99867.63
2023-05-19T16:37:10.716Z,99864.09
2023-05-19T16:42:29.799Z,99874.09
2023-05-19T16:44:56.588Z,99872.03
2023-05-19T16:47:27.366Z,99865.97
2023-05-19T16:49:55.687Z,99861.13
2023-05-19T16:52:24.354Z,99864.47
2023-05-19T16:54:51.776Z,99867.28
2023-05-19T16:57:20.678Z,99869.94
2023-05-19T16:59:50.791Z,99867.28
2023-05-19T17:02:17.676Z,99872.78
2023-05-19T17:07:35.876Z,99863.78
2023-05-19T17:10:04.054Z,99872.66
2023-05-19T17:12:30.975Z,99868.13
2023-05-19T17:14:57.841Z,99869.59
2023-05-19T17:17:24.671Z,99868.06
2023-05-19T17:19:51.648Z,99861.97
2023-05-19T17:22:18.783Z,99867.00
2023-05-19T17:24:46.315Z,99870.94
2023-05-19T17:27:14.819Z,99870.31
2023-05-19T17:29:41.673Z,99865.50
2023-05-19T17:32:09.692Z,99872.84
2023-05-19T17:34:37.670Z,99865.34
2023-05-19T17:37:05.322Z,99867.03
2023-05-19T17:39:32.156Z,99864.72
2023-05-19T17:41:59.369Z,99860.34
2023-05-19T17:44:26.150Z,99855.38
2023-05-19T17:46:53.078Z,99863.06
2023-05-19T17:49:22.332Z,99867.59
2023-05-19T17:51:49.419Z,99872.28
2023-05-19T17:54:41.528Z,99872.78
2023-05-19T17:57:12.930Z,99878.44
2023-05-19T17:59:42.199Z,99873.13
2023-05-19T18:02:09.600Z,99875.59
2023-05-19T18:04:36.675Z,99874.53
2023-05-19T18:07:08.172Z,99875.44
2023-05-19T18:09:37.786Z,99869.97
2023-05-19T18:12:05.737Z,99872.66
2023-05-19T18:14:32.518Z,99871.72
2023-05-19T18:17:00.490Z,99868.63
2023-05-19T18:19:28.156Z,99858.78
2023-05-19T18:21:55.053Z,99858.78
2023-05-19T18:24:22.521Z,99871.94
2023-05-19T18:26:49.341Z,99871.50
2023-05-19T18:29:16.712Z,99872.28
2023-05-19T18:31:44.317Z,99870.44
2023-05-19T18:34:11.696Z,99879.97
2023-05-19T18:36:38.553Z,99869.16
2023-05-19T18:39:06.315Z,99875.28
2023-05-19T18:41:35.637Z,99876.38
2023-05-19T18:44:03.289Z,99878.88
2023-05-19T18:46:30.297Z,99880.78
2023-05-19T18:48:57.173Z,99879.69
2023-05-19T18:51:50.465Z,99874.53
2023-05-19T18:54:20.713Z,99874.41
2023-05-19T18:56:47.727Z,99887.78
2023-05-19T18:59:14.574Z,99880.78
2023-05-19T19:01:41.859Z,99887.78
2023-05-19T19:04:09.454Z,99892.31
2023-05-19T19:06:37.689Z,99894.03
2023-05-19T19:09:04.697Z,99898.56
2023-05-19T19:11:31.914Z,99897.47
2023-05-19T19:13:58.818Z,99896.38
2023-05-19T19:16:25.768Z,99900.56
2023-05-19T19:18:53.356Z,99896.06
2023-05-19T19:21:20.392Z,99901.28
2023-05-19T19:23:47.235Z,99894.03
2023-05-19T19:26:13.993Z,99915.34
2023-05-19T19:28:42.051Z,99909.69
2023-05-19T19:31:08.941Z,99907.00
2023-05-19T19:33:35.803Z,99902.63
2023-05-19T19:36:02.854Z,99908.06
2023-05-19T19:38:29.682Z,99908.03
2023-05-19T19:40:57.329Z,99901.19
2023-05-19T19:43:24.706Z,99913.94
2023-05-19T19:46:02.177Z,99911.22
2023-05-19T19:48:57.021Z,99911.66
2023-05-19T19:51:29.376Z,99917.59
2023-05-19T19:53:56.162Z,99929.59
2023-05-19T19:56:23.992Z,99929.13
2023-05-19T19:58:51.103Z,99930.09
2023-05-19T20:01:19.081Z,99930.69
2023-05-19T20:03:46.335Z,99925.94
2023-05-19T20:06:15.416Z,99932.47
2023-05-19T20:09:07.442Z,99936.56
2023-05-19T20:11:39.425Z,99931.94
2023-05-19T20:14:07.006Z,99941.16
2023-05-19T20:16:33.919Z,99939.91
2023-05-19T20:19:00.847Z,99946.16
2023-05-19T20:21:27.726Z,99936.28
2023-05-19T20:23:55.406Z,99933.06
2023-05-19T20:26:23.328Z,99936.44
2023-05-19T20:28:50.330Z,99929.66
2023-05-19T20:31:17.276Z,99939.28
2023-05-19T20:33:44.140Z,99930.84
2023-05-19T20:36:11.109Z,99922.44
2023-05-19T20:38:37.858Z,99931.63
2023-05-19T20:41:04.755Z,99931.56
2023-05-19T20:43:32.395Z,99924.53
2023-05-19T20:46:00.179Z,99927.28
2023-05-19T20:48:27.210Z,99927.97
2023-05-19T20:50:55.441Z,99921.03
2023-05-19T20:53:23.907Z,99923.06
2023-05-19T20:55:50.707Z,99924.44
2023-05-19T20:58:18.383Z,99927.78
2023-05-19T21:00:45.161Z,99926.88
2023-05-19T21:03:12.126Z,99927.66
2023-05-19T21:05:39.967Z,99925.31
2023-05-19T21:08:08.762Z,99915.38
2023-05-19T21:10:35.641Z,99918.28
2023-05-19T21:13:03.018Z,99916.81
2023-05-19T21:15:30.933Z,99929.22
2023-05-19T21:17:59.781Z,99933.75
2023-05-19T21:20:26.695Z,99935.00
2023-05-19T21:22:53.726Z,99936.56
2023-05-19T21:25:20.811Z,99934.06
2023-05-19T21:27:47.597Z,99920.09
2023-05-19T21:30:14.527Z,99921.66
2023-05-19T21:32:42.503Z,99925.03
2023-05-19T21:35:09.402Z,99920.88
2023-05-19T21:37:37.807Z,99933.84
2023-05-19T21:40:05.389Z,99939.69
2023-05-19T21:42:32.217Z,99933.94
2023-05-19T21:45:00.389Z,99935.09
2023-05-19T21:47:27.329Z,99929.72
2023-05-19T21:49:57.322Z,99937.03
2023-05-19T21:52:27.770Z,99940.53
2023-05-19T21:54:54.654Z,99941.84
2023-05-19T21:57:22.381Z,99943.47
2023-05-19T21:59:49.299Z,99938.97
2023-05-19T22:02:45.463Z,99946.09
2023-05-19T22:05:12.913Z,99939.28
2023-05-19T22:07:39.835Z,99927.78
2023-05-19T22:10:07.043Z,99935.22
2023-05-19T22:12:33.858Z,99922.09
2023-05-19T22:15:00.724Z,99922.22
2023-05-19T22:17:29.475Z,99932.69
2023-05-19T22:19:57.779Z,99935.53
2023-05-19T22:22:50.433Z,99922.53
2023-05-19T22:25:17.921Z,99927.59
2023-05-19T22:27:44.873Z,99934.44
2023-05-19T22:30:11.901Z,99929.09
2023-05-19T22:32:38.794Z,99931.47
2023-05-19T22:35:05.828Z,99930.66
2023-05-19T22:37:32.953Z,99940.00
2023-05-19T22:40:01.717Z,99939.16
2023-05-19T22:42:28.542Z,99947.44
2023-05-19T22:44:56.392Z,99947.34
2023-05-19T22:47:23.946Z,99940.59
2023-05-19T22:49:52.055Z,99939.59
2023-05-19T22:52:19.778Z,99938.66
2023-05-19T22:54:49.927Z,99934.31
2023-05-19T22:57:18.455Z,99945.41
2023-05-19T22:59:45.383Z,99941.91
2023-05-19T23:02:37.444Z,99940.16
2023-05-19T23:05:04.773Z,99942.63
2023-05-19T23:07:33.751Z,99939.06
2023-05-19T23:10:00.551Z,99935.91
2023-05-19T23:12:27.869Z,99936.69
2023-05-19T23:14:55.010Z,99932.72
2023-05-19T23:17:21.852Z,99934.50
2023-05-19T23:19:48.766Z,99927.63
2023-05-19T23:22:16.455Z,99923.34
2023-05-19T23:24:43.810Z,99918.66
2023-05-19T23:27:11.474Z,99922.81
2023-05-19T23:29:38.370Z,99926.25
2023-05-19T23:32:05.833Z,99920.16
2023-05-19T23:34:32.773Z,99908.44
2023-05-19T23:36:59.657Z,99901.00
2023-05-19T23:39:26.571Z,99899.38
2023-05-19T23:41:54.002Z,99905.53
2023-05-19T23:44:21.026Z,99901.56
2023-05-19T23:46:47.952Z,99904.53
2023-05-19T23:49:39.826Z,99893.16
2023-05-19T23:52:06.939Z,99906.25
2023-05-19T23:54:33.750Z,99903.38
2023-05-19T23:57:03.406Z,99899.19
2023-05-19T23:59:30.359Z,99900.00
